sensor_id;sensor_type;location;lat;lon;timestamp;P1;durP1;ratioP1;P2;durP2;ratioP2
52730;SDS011;38624;53.242;6.974;2022-10-31T00:01:36;28.52;;;15.77;;
52730;SDS011;38624;53.242;6.974;2022-10-31T00:04:04;37.90;;;17.10;;
52730;SDS011;38624;53.242;6.974;2022-10-31T00:06:30;33.83;;;16.83;;
52730;SDS011;38624;53.242;6.974;2022-10-31T00:08:57;32.47;;;16.33;;
52730;SDS011;38624;53.242;6.974;2022-10-31T00:11:27;29.60;;;15.68;;
52730;SDS011;38624;53.242;6.974;2022-10-31T00:13:52;31.45;;;16.02;;
52730;SDS011;38624;53.242;6.974;2022-10-31T00:16:23;29.83;;;15.60;;
52730;SDS011;38624;53.242;6.974;2022-10-31T00:18:53;30.30;;;15.85;;
52730;SDS011;38624;53.242;6.974;2022-10-31T00:21:20;27.30;;;14.65;;
52730;SDS011;38624;53.242;6.974;2022-10-31T00:23:46;35.33;;;16.50;;
52730;SDS011;38624;53.242;6.974;2022-10-31T00:26:12;32.10;;;16.27;;
52730;SDS011;38624;53.242;6.974;2022-10-31T00:28:38;29.63;;;15.93;;
52730;SDS011;38624;53.242;6.974;2022-10-31T00:31:06;30.43;;;16.50;;
52730;SDS011;38624;53.242;6.974;2022-10-31T00:33:34;31.58;;;16.63;;
52730;SDS011;38624;53.242;6.974;2022-10-31T00:36:01;34.33;;;16.83;;
52730;SDS011;38624;53.242;6.974;2022-10-31T00:38:28;32.25;;;17.17;;
52730;SDS011;38624;53.242;6.974;2022-10-31T00:40:53;34.73;;;16.90;;
52730;SDS011;38624;53.242;6.974;2022-10-31T00:43:19;37.27;;;17.47;;
52730;SDS011;38624;53.242;6.974;2022-10-31T00:45:45;34.53;;;18.50;;
52730;SDS011;38624;53.242;6.974;2022-10-31T00:48:10;33.13;;;18.10;;
52730;SDS011;38624;53.242;6.974;2022-10-31T00:50:36;38.33;;;17.30;;
52730;SDS011;38624;53.242;6.974;2022-10-31T00:53:03;33.80;;;18.20;;
52730;SDS011;38624;53.242;6.974;2022-10-31T00:55:28;47.75;;;18.20;;
52730;SDS011;38624;53.242;6.974;2022-10-31T00:57:54;36.47;;;19.13;;
52730;SDS011;38624;53.242;6.974;2022-10-31T01:00:20;33.30;;;18.03;;
52730;SDS011;38624;53.242;6.974;2022-10-31T01:02:45;37.03;;;19.40;;
52730;SDS011;38624;53.242;6.974;2022-10-31T01:05:11;32.30;;;19.10;;
52730;SDS011;38624;53.242;6.974;2022-10-31T01:07:38;33.50;;;19.07;;
52730;SDS011;38624;53.242;6.974;2022-10-31T01:10:05;37.05;;;19.83;;
52730;SDS011;38624;53.242;6.974;2022-10-31T01:12:45;38.25;;;19.40;;
52730;SDS011;38624;53.242;6.974;2022-10-31T01:15:13;34.72;;;19.30;;
52730;SDS011;38624;53.242;6.974;2022-10-31T01:17:41;35.72;;;19.67;;
52730;SDS011;38624;53.242;6.974;2022-10-31T01:20:07;32.17;;;18.45;;
52730;SDS011;38624;53.242;6.974;2022-10-31T01:22:35;34.88;;;18.13;;
52730;SDS011;38624;53.242;6.974;2022-10-31T01:25:00;30.92;;;18.40;;
52730;SDS011;38624;53.242;6.974;2022-10-31T01:27:26;34.60;;;19.25;;
52730;SDS011;38624;53.242;6.974;2022-10-31T01:29:52;36.72;;;19.05;;
52730;SDS011;38624;53.242;6.974;2022-10-31T01:32:18;38.35;;;18.77;;
52730;SDS011;38624;53.242;6.974;2022-10-31T01:34:43;36.28;;;18.98;;
52730;SDS011;38624;53.242;6.974;2022-10-31T01:37:09;38.67;;;20.00;;
52730;SDS011;38624;53.242;6.974;2022-10-31T01:39:35;34.53;;;18.50;;
52730;SDS011;38624;53.242;6.974;2022-10-31T01:42:00;42.53;;;19.42;;
52730;SDS011;38624;53.242;6.974;2022-10-31T01:52:13;33.22;;;18.27;;
52730;SDS011;38624;53.242;6.974;2022-10-31T01:54:41;30.02;;;17.92;;
52730;SDS011;38624;53.242;6.974;2022-10-31T01:57:10;36.42;;;19.23;;
52730;SDS011;38624;53.242;6.974;2022-10-31T01:59:39;36.70;;;18.13;;
52730;SDS011;38624;53.242;6.974;2022-10-31T02:02:10;34.22;;;18.45;;
52730;SDS011;38624;53.242;6.974;2022-10-31T02:04:36;34.05;;;18.45;;
52730;SDS011;38624;53.242;6.974;2022-10-31T02:07:04;34.17;;;17.48;;
52730;SDS011;38624;53.242;6.974;2022-10-31T02:09:34;32.30;;;17.08;;
52730;SDS011;38624;53.242;6.974;2022-10-31T02:14:28;31.05;;;16.42;;
52730;SDS011;38624;53.242;6.974;2022-10-31T02:16:55;33.63;;;16.98;;
52730;SDS011;38624;53.242;6.974;2022-10-31T02:19:30;33.97;;;18.00;;
52730;SDS011;38624;53.242;6.974;2022-10-31T02:25:02;28.67;;;16.60;;
52730;SDS011;38624;53.242;6.974;2022-10-31T02:27:48;30.40;;;16.65;;
52730;SDS011;38624;53.242;6.974;2022-10-31T02:35:55;28.00;;;16.80;;
52730;SDS011;38624;53.242;6.974;2022-10-31T02:43:44;30.63;;;15.75;;
52730;SDS011;38624;53.242;6.974;2022-10-31T02:48:56;29.33;;;15.57;;
52730;SDS011;38624;53.242;6.974;2022-10-31T02:51:27;31.98;;;15.82;;
52730;SDS011;38624;53.242;6.974;2022-10-31T02:53:53;31.95;;;15.80;;
52730;SDS011;38624;53.242;6.974;2022-10-31T02:56:19;26.23;;;15.10;;
52730;SDS011;38624;53.242;6.974;2022-10-31T02:58:47;31.35;;;15.95;;
52730;SDS011;38624;53.242;6.974;2022-10-31T03:06:49;31.65;;;16.73;;
52730;SDS011;38624;53.242;6.974;2022-10-31T03:14:39;32.13;;;18.55;;
52730;SDS011;38624;53.242;6.974;2022-10-31T03:17:09;34.25;;;18.88;;
52730;SDS011;38624;53.242;6.974;2022-10-31T03:19:54;35.55;;;20.17;;
52730;SDS011;38624;53.242;6.974;2022-10-31T03:22:23;37.80;;;20.52;;
52730;SDS011;38624;53.242;6.974;2022-10-31T03:24:51;38.08;;;19.48;;
52730;SDS011;38624;53.242;6.974;2022-10-31T03:27:20;31.98;;;18.67;;
52730;SDS011;38624;53.242;6.974;2022-10-31T03:29:50;33.47;;;19.88;;
52730;SDS011;38624;53.242;6.974;2022-10-31T03:32:20;33.60;;;17.67;;
52730;SDS011;38624;53.242;6.974;2022-10-31T03:34:49;30.08;;;17.45;;
52730;SDS011;38624;53.242;6.974;2022-10-31T03:37:20;35.80;;;19.42;;
52730;SDS011;38624;53.242;6.974;2022-10-31T03:39:50;26.95;;;17.15;;
52730;SDS011;38624;53.242;6.974;2022-10-31T03:42:20;30.17;;;17.50;;
52730;SDS011;38624;53.242;6.974;2022-10-31T03:44:53;31.90;;;17.80;;
52730;SDS011;38624;53.242;6.974;2022-10-31T03:47:23;31.77;;;17.55;;
52730;SDS011;38624;53.242;6.974;2022-10-31T03:49:49;32.47;;;18.83;;
52730;SDS011;38624;53.242;6.974;2022-10-31T03:54:52;29.77;;;18.42;;
52730;SDS011;38624;53.242;6.974;2022-10-31T03:57:25;28.08;;;17.55;;
52730;SDS011;38624;53.242;6.974;2022-10-31T04:00:05;32.97;;;17.75;;
52730;SDS011;38624;53.242;6.974;2022-10-31T04:02:38;31.25;;;17.58;;
52730;SDS011;38624;53.242;6.974;2022-10-31T04:05:07;31.85;;;17.40;;
52730;SDS011;38624;53.242;6.974;2022-10-31T04:07:36;28.98;;;16.67;;
52730;SDS011;38624;53.242;6.974;2022-10-31T04:10:07;29.27;;;16.58;;
52730;SDS011;38624;53.242;6.974;2022-10-31T04:12:37;27.77;;;16.42;;
52730;SDS011;38624;53.242;6.974;2022-10-31T04:15:04;32.40;;;17.20;;
52730;SDS011;38624;53.242;6.974;2022-10-31T04:17:33;27.45;;;15.23;;
52730;SDS011;38624;53.242;6.974;2022-10-31T04:20:03;30.33;;;16.08;;
52730;SDS011;38624;53.242;6.974;2022-10-31T04:22:30;24.95;;;14.70;;
52730;SDS011;38624;53.242;6.974;2022-10-31T04:24:56;27.83;;;14.80;;
52730;SDS011;38624;53.242;6.974;2022-10-31T04:27:21;25.58;;;15.10;;
52730;SDS011;38624;53.242;6.974;2022-10-31T04:29:47;24.83;;;14.25;;
52730;SDS011;38624;53.242;6.974;2022-10-31T04:32:12;24.20;;;14.15;;
52730;SDS011;38624;53.242;6.974;2022-10-31T04:34:38;26.85;;;16.05;;
52730;SDS011;38624;53.242;6.974;2022-10-31T04:37:04;24.70;;;16.08;;
52730;SDS011;38624;53.242;6.974;2022-10-31T04:39:30;28.10;;;15.30;;
52730;SDS011;38624;53.242;6.974;2022-10-31T04:41:55;25.20;;;15.70;;
52730;SDS011;38624;53.242;6.974;2022-10-31T04:44:21;24.52;;;15.88;;
52730;SDS011;38624;53.242;6.974;2022-10-31T04:46:47;30.65;;;15.85;;
52730;SDS011;38624;53.242;6.974;2022-10-31T04:49:12;25.20;;;15.50;;
52730;SDS011;38624;53.242;6.974;2022-10-31T04:51:38;28.30;;;16.23;;
52730;SDS011;38624;53.242;6.974;2022-10-31T04:54:04;31.92;;;16.20;;
52730;SDS011;38624;53.242;6.974;2022-10-31T04:56:29;26.88;;;16.30;;
52730;SDS011;38624;53.242;6.974;2022-10-31T04:58:55;26.83;;;15.75;;
52730;SDS011;38624;53.242;6.974;2022-10-31T05:01:21;27.88;;;16.00;;
52730;SDS011;38624;53.242;6.974;2022-10-31T05:03:47;30.05;;;16.35;;
52730;SDS011;38624;53.242;6.974;2022-10-31T05:06:12;26.77;;;16.05;;
52730;SDS011;38624;53.242;6.974;2022-10-31T05:08:38;27.75;;;15.48;;
52730;SDS011;38624;53.242;6.974;2022-10-31T05:11:04;25.50;;;15.95;;
52730;SDS011;38624;53.242;6.974;2022-10-31T05:13:30;28.02;;;16.13;;
52730;SDS011;38624;53.242;6.974;2022-10-31T05:15:56;26.63;;;15.95;;
52730;SDS011;38624;53.242;6.974;2022-10-31T05:18:22;27.00;;;15.73;;
52730;SDS011;38624;53.242;6.974;2022-10-31T05:20:48;31.30;;;17.38;;
52730;SDS011;38624;53.242;6.974;2022-10-31T05:23:13;29.63;;;16.42;;
52730;SDS011;38624;53.242;6.974;2022-10-31T05:25:39;26.17;;;15.63;;
52730;SDS011;38624;53.242;6.974;2022-10-31T05:28:06;27.55;;;15.55;;
52730;SDS011;38624;53.242;6.974;2022-10-31T05:30:32;28.60;;;17.40;;
52730;SDS011;38624;53.242;6.974;2022-10-31T05:32:58;29.83;;;15.75;;
52730;SDS011;38624;53.242;6.974;2022-10-31T05:35:26;26.67;;;16.67;;
52730;SDS011;38624;53.242;6.974;2022-10-31T05:37:57;27.95;;;16.20;;
52730;SDS011;38624;53.242;6.974;2022-10-31T05:40:24;24.85;;;15.20;;
52730;SDS011;38624;53.242;6.974;2022-10-31T05:45:17;25.70;;;14.15;;
52730;SDS011;38624;53.242;6.974;2022-10-31T05:47:59;26.95;;;15.40;;
52730;SDS011;38624;53.242;6.974;2022-10-31T05:50:27;27.02;;;15.32;;
52730;SDS011;38624;53.242;6.974;2022-10-31T05:52:54;31.05;;;16.17;;
52730;SDS011;38624;53.242;6.974;2022-10-31T05:55:22;23.98;;;14.52;;
52730;SDS011;38624;53.242;6.974;2022-10-31T05:57:48;21.70;;;14.10;;
52730;SDS011;38624;53.242;6.974;2022-10-31T06:00:13;25.55;;;15.20;;
52730;SDS011;38624;53.242;6.974;2022-10-31T06:02:39;28.20;;;15.25;;
52730;SDS011;38624;53.242;6.974;2022-10-31T06:05:05;27.13;;;15.55;;
52730;SDS011;38624;53.242;6.974;2022-10-31T06:07:34;30.67;;;16.67;;
52730;SDS011;38624;53.242;6.974;2022-10-31T06:10:02;26.00;;;15.93;;
52730;SDS011;38624;53.242;6.974;2022-10-31T06:12:29;25.30;;;16.80;;
52730;SDS011;38624;53.242;6.974;2022-10-31T06:14:55;25.40;;;16.33;;
52730;SDS011;38624;53.242;6.974;2022-10-31T06:17:21;25.48;;;16.50;;
52730;SDS011;38624;53.242;6.974;2022-10-31T06:19:47;27.00;;;16.17;;
52730;SDS011;38624;53.242;6.974;2022-10-31T06:22:12;28.92;;;16.00;;
52730;SDS011;38624;53.242;6.974;2022-10-31T06:24:38;27.00;;;16.70;;
52730;SDS011;38624;53.242;6.974;2022-10-31T06:27:04;28.40;;;18.15;;
52730;SDS011;38624;53.242;6.974;2022-10-31T06:29:30;28.48;;;16.90;;
52730;SDS011;38624;53.242;6.974;2022-10-31T06:31:56;30.75;;;17.60;;
52730;SDS011;38624;53.242;6.974;2022-10-31T06:34:22;28.13;;;17.25;;
52730;SDS011;38624;53.242;6.974;2022-10-31T06:36:48;28.70;;;17.55;;
52730;SDS011;38624;53.242;6.974;2022-10-31T06:39:14;26.70;;;16.57;;
52730;SDS011;38624;53.242;6.974;2022-10-31T06:41:40;25.27;;;16.05;;
52730;SDS011;38624;53.242;6.974;2022-10-31T06:44:06;23.93;;;16.07;;
52730;SDS011;38624;53.242;6.974;2022-10-31T06:46:32;29.48;;;17.08;;
52730;SDS011;38624;53.242;6.974;2022-10-31T06:48:58;23.27;;;15.73;;
52730;SDS011;38624;53.242;6.974;2022-10-31T06:51:24;24.27;;;16.20;;
52730;SDS011;38624;53.242;6.974;2022-10-31T06:53:50;27.05;;;17.23;;
52730;SDS011;38624;53.242;6.974;2022-10-31T06:56:16;28.65;;;15.88;;
52730;SDS011;38624;53.242;6.974;2022-10-31T06:58:41;31.40;;;17.85;;
52730;SDS011;38624;53.242;6.974;2022-10-31T07:01:07;30.52;;;18.77;;
52730;SDS011;38624;53.242;6.974;2022-10-31T07:03:33;27.20;;;16.73;;
52730;SDS011;38624;53.242;6.974;2022-10-31T07:05:59;29.70;;;15.57;;
52730;SDS011;38624;53.242;6.974;2022-10-31T07:08:24;27.75;;;16.95;;
52730;SDS011;38624;53.242;6.974;2022-10-31T07:10:54;32.05;;;17.60;;
52730;SDS011;38624;53.242;6.974;2022-10-31T07:13:22;24.13;;;15.38;;
52730;SDS011;38624;53.242;6.974;2022-10-31T07:15:51;25.10;;;16.75;;
52730;SDS011;38624;53.242;6.974;2022-10-31T07:18:18;25.00;;;16.83;;
52730;SDS011;38624;53.242;6.974;2022-10-31T07:20:44;33.17;;;18.95;;
52730;SDS011;38624;53.242;6.974;2022-10-31T07:23:10;29.63;;;18.85;;
52730;SDS011;38624;53.242;6.974;2022-10-31T07:25:36;34.28;;;20.88;;
52730;SDS011;38624;53.242;6.974;2022-10-31T07:28:02;31.23;;;18.30;;
52730;SDS011;38624;53.242;6.974;2022-10-31T07:30:28;30.65;;;19.08;;
52730;SDS011;38624;53.242;6.974;2022-10-31T07:32:54;28.40;;;18.50;;
52730;SDS011;38624;53.242;6.974;2022-10-31T07:35:24;31.17;;;20.70;;
52730;SDS011;38624;53.242;6.974;2022-10-31T07:37:51;34.58;;;20.52;;
52730;SDS011;38624;53.242;6.974;2022-10-31T07:40:17;42.42;;;24.38;;
52730;SDS011;38624;53.242;6.974;2022-10-31T07:42:44;31.52;;;21.25;;
52730;SDS011;38624;53.242;6.974;2022-10-31T07:45:12;40.50;;;23.13;;
52730;SDS011;38624;53.242;6.974;2022-10-31T07:47:50;34.10;;;21.48;;
52730;SDS011;38624;53.242;6.974;2022-10-31T07:50:18;33.15;;;21.80;;
52730;SDS011;38624;53.242;6.974;2022-10-31T07:52:45;37.20;;;21.92;;
52730;SDS011;38624;53.242;6.974;2022-10-31T07:55:11;32.35;;;20.58;;
52730;SDS011;38624;53.242;6.974;2022-10-31T07:57:38;40.38;;;22.55;;
52730;SDS011;38624;53.242;6.974;2022-10-31T08:00:04;33.28;;;20.45;;
52730;SDS011;38624;53.242;6.974;2022-10-31T08:02:32;38.28;;;22.42;;
52730;SDS011;38624;53.242;6.974;2022-10-31T08:04:57;36.83;;;22.38;;
52730;SDS011;38624;53.242;6.974;2022-10-31T08:07:25;37.42;;;22.38;;
52730;SDS011;38624;53.242;6.974;2022-10-31T08:09:51;31.85;;;21.08;;
52730;SDS011;38624;53.242;6.974;2022-10-31T08:12:17;37.50;;;23.38;;
52730;SDS011;38624;53.242;6.974;2022-10-31T08:14:43;36.03;;;22.42;;
52730;SDS011;38624;53.242;6.974;2022-10-31T08:17:09;40.08;;;23.33;;
52730;SDS011;38624;53.242;6.974;2022-10-31T08:19:35;34.65;;;22.60;;
52730;SDS011;38624;53.242;6.974;2022-10-31T08:22:01;42.83;;;23.67;;
52730;SDS011;38624;53.242;6.974;2022-10-31T08:24:27;33.17;;;22.25;;
52730;SDS011;38624;53.242;6.974;2022-10-31T08:26:52;37.75;;;24.55;;
52730;SDS011;38624;53.242;6.974;2022-10-31T08:29:18;35.13;;;23.15;;
52730;SDS011;38624;53.242;6.974;2022-10-31T08:31:44;38.83;;;23.38;;
52730;SDS011;38624;53.242;6.974;2022-10-31T08:34:09;31.65;;;21.33;;
52730;SDS011;38624;53.242;6.974;2022-10-31T08:36:35;37.38;;;23.10;;
52730;SDS011;38624;53.242;6.974;2022-10-31T08:39:01;34.05;;;23.80;;
52730;SDS011;38624;53.242;6.974;2022-10-31T08:41:27;33.75;;;23.63;;
52730;SDS011;38624;53.242;6.974;2022-10-31T08:43:52;37.97;;;24.23;;
52730;SDS011;38624;53.242;6.974;2022-10-31T08:46:18;32.47;;;22.75;;
52730;SDS011;38624;53.242;6.974;2022-10-31T08:48:44;33.05;;;23.83;;
52730;SDS011;38624;53.242;6.974;2022-10-31T08:51:13;36.28;;;23.63;;
52730;SDS011;38624;53.242;6.974;2022-10-31T08:53:38;35.47;;;22.65;;
52730;SDS011;38624;53.242;6.974;2022-10-31T08:56:04;42.58;;;25.48;;
52730;SDS011;38624;53.242;6.974;2022-10-31T08:58:30;35.25;;;24.45;;
52730;SDS011;38624;53.242;6.974;2022-10-31T09:00:55;37.30;;;24.15;;
52730;SDS011;38624;53.242;6.974;2022-10-31T09:03:25;32.42;;;22.27;;
52730;SDS011;38624;53.242;6.974;2022-10-31T09:05:56;34.17;;;22.83;;
52730;SDS011;38624;53.242;6.974;2022-10-31T09:08:23;33.33;;;21.65;;
52730;SDS011;38624;53.242;6.974;2022-10-31T09:10:49;36.63;;;22.10;;
52730;SDS011;38624;53.242;6.974;2022-10-31T09:13:16;30.57;;;20.90;;
52730;SDS011;38624;53.242;6.974;2022-10-31T09:15:44;32.40;;;20.77;;
52730;SDS011;38624;53.242;6.974;2022-10-31T09:18:12;35.00;;;22.42;;
52730;SDS011;38624;53.242;6.974;2022-10-31T09:20:40;31.55;;;21.05;;
52730;SDS011;38624;53.242;6.974;2022-10-31T09:23:08;30.45;;;19.30;;
52730;SDS011;38624;53.242;6.974;2022-10-31T09:25:36;25.58;;;18.40;;
52730;SDS011;38624;53.242;6.974;2022-10-31T09:28:03;23.90;;;18.25;;
52730;SDS011;38624;53.242;6.974;2022-10-31T09:30:31;28.73;;;18.23;;
52730;SDS011;38624;53.242;6.974;2022-10-31T09:33:02;27.52;;;17.50;;
52730;SDS011;38624;53.242;6.974;2022-10-31T09:35:29;27.27;;;17.98;;
52730;SDS011;38624;53.242;6.974;2022-10-31T09:37:56;26.83;;;17.95;;
52730;SDS011;38624;53.242;6.974;2022-10-31T09:40:43;28.20;;;18.17;;
52730;SDS011;38624;53.242;6.974;2022-10-31T09:51:22;24.77;;;16.98;;
52730;SDS011;38624;53.242;6.974;2022-10-31T09:53:52;30.98;;;17.85;;
52730;SDS011;38624;53.242;6.974;2022-10-31T09:56:42;24.05;;;16.60;;
52730;SDS011;38624;53.242;6.974;2022-10-31T09:59:17;26.13;;;16.83;;
52730;SDS011;38624;53.242;6.974;2022-10-31T10:01:54;25.70;;;16.50;;
52730;SDS011;38624;53.242;6.974;2022-10-31T10:07:16;26.23;;;16.52;;
52730;SDS011;38624;53.242;6.974;2022-10-31T10:09:45;25.08;;;17.13;;
52730;SDS011;38624;53.242;6.974;2022-10-31T10:15:40;27.20;;;16.35;;
52730;SDS011;38624;53.242;6.974;2022-10-31T10:23:35;24.60;;;15.27;;
52730;SDS011;38624;53.242;6.974;2022-10-31T10:26:18;24.63;;;14.73;;
52730;SDS011;38624;53.242;6.974;2022-10-31T10:28:47;25.85;;;15.05;;
52730;SDS011;38624;53.242;6.974;2022-10-31T10:31:30;24.25;;;15.10;;
52730;SDS011;38624;53.242;6.974;2022-10-31T10:34:07;25.60;;;14.68;;
52730;SDS011;38624;53.242;6.974;2022-10-31T10:36:44;20.88;;;13.30;;
52730;SDS011;38624;53.242;6.974;2022-10-31T10:39:34;19.30;;;12.45;;
52730;SDS011;38624;53.242;6.974;2022-10-31T10:42:07;20.83;;;13.07;;
52730;SDS011;38624;53.242;6.974;2022-10-31T10:44:56;22.15;;;12.48;;
52730;SDS011;38624;53.242;6.974;2022-10-31T10:47:42;20.63;;;11.52;;
52730;SDS011;38624;53.242;6.974;2022-10-31T10:55:27;21.15;;;12.75;;
52730;SDS011;38624;53.242;6.974;2022-10-31T10:58:02;20.23;;;13.27;;
52730;SDS011;38624;53.242;6.974;2022-10-31T11:00:35;20.67;;;12.75;;
52730;SDS011;38624;53.242;6.974;2022-10-31T11:03:06;18.58;;;10.80;;
52730;SDS011;38624;53.242;6.974;2022-10-31T11:14:03;18.15;;;10.23;;
52730;SDS011;38624;53.242;6.974;2022-10-31T11:16:37;15.88;;;9.88;;
52730;SDS011;38624;53.242;6.974;2022-10-31T11:19:19;15.45;;;9.68;;
52730;SDS011;38624;53.242;6.974;2022-10-31T11:21:47;14.77;;;9.18;;
52730;SDS011;38624;53.242;6.974;2022-10-31T11:24:15;19.73;;;9.90;;
52730;SDS011;38624;53.242;6.974;2022-10-31T11:26:47;18.92;;;9.40;;
52730;SDS011;38624;53.242;6.974;2022-10-31T11:29:15;16.65;;;9.70;;
52730;SDS011;38624;53.242;6.974;2022-10-31T11:31:53;16.08;;;10.23;;
52730;SDS011;38624;53.242;6.974;2022-10-31T11:34:34;19.17;;;9.60;;
52730;SDS011;38624;53.242;6.974;2022-10-31T11:39:52;14.90;;;8.52;;
52730;SDS011;38624;53.242;6.974;2022-10-31T11:42:26;14.05;;;8.45;;
52730;SDS011;38624;53.242;6.974;2022-10-31T11:44:54;14.80;;;8.30;;
52730;SDS011;38624;53.242;6.974;2022-10-31T11:47:30;17.58;;;8.63;;
52730;SDS011;38624;53.242;6.974;2022-10-31T11:49:57;13.38;;;8.32;;
52730;SDS011;38624;53.242;6.974;2022-10-31T11:52:28;16.73;;;8.57;;
52730;SDS011;38624;53.242;6.974;2022-10-31T12:00:33;18.48;;;9.38;;
52730;SDS011;38624;53.242;6.974;2022-10-31T12:03:14;14.40;;;8.02;;
52730;SDS011;38624;53.242;6.974;2022-10-31T12:05:44;16.85;;;7.93;;
52730;SDS011;38624;53.242;6.974;2022-10-31T12:08:12;12.35;;;7.13;;
52730;SDS011;38624;53.242;6.974;2022-10-31T12:10:54;14.32;;;7.15;;
52730;SDS011;38624;53.242;6.974;2022-10-31T12:13:33;14.35;;;7.45;;
52730;SDS011;38624;53.242;6.974;2022-10-31T12:16:29;13.18;;;6.35;;
52730;SDS011;38624;53.242;6.974;2022-10-31T12:19:15;10.13;;;6.80;;
52730;SDS011;38624;53.242;6.974;2022-10-31T12:27:08;9.73;;;6.47;;
52730;SDS011;38624;53.242;6.974;2022-10-31T12:35:08;16.27;;;6.75;;
52730;SDS011;38624;53.242;6.974;2022-10-31T12:38:10;13.80;;;6.15;;
52730;SDS011;38624;53.242;6.974;2022-10-31T12:58:23;13.07;;;8.23;;
52730;SDS011;38624;53.242;6.974;2022-10-31T13:00:53;16.75;;;8.48;;
52730;SDS011;38624;53.242;6.974;2022-10-31T13:06:24;11.98;;;7.32;;
52730;SDS011;38624;53.242;6.974;2022-10-31T13:08:57;10.80;;;6.55;;
52730;SDS011;38624;53.242;6.974;2022-10-31T13:11:31;13.45;;;6.72;;
52730;SDS011;38624;53.242;6.974;2022-10-31T13:16:48;11.85;;;6.82;;
52730;SDS011;38624;53.242;6.974;2022-10-31T13:19:31;13.35;;;6.30;;
52730;SDS011;38624;53.242;6.974;2022-10-31T13:22:07;13.55;;;6.15;;
52730;SDS011;38624;53.242;6.974;2022-10-31T13:32:30;13.10;;;6.00;;
52730;SDS011;38624;53.242;6.974;2022-10-31T13:38:09;13.65;;;6.82;;
52730;SDS011;38624;53.242;6.974;2022-10-31T13:41:05;16.10;;;10.32;;
52730;SDS011;38624;53.242;6.974;2022-10-31T13:46:34;19.30;;;13.60;;
52730;SDS011;38624;53.242;6.974;2022-10-31T13:49:02;21.95;;;14.40;;
52730;SDS011;38624;53.242;6.974;2022-10-31T13:51:32;21.50;;;14.13;;
52730;SDS011;38624;53.242;6.974;2022-10-31T13:54:01;20.25;;;14.32;;
52730;SDS011;38624;53.242;6.974;2022-10-31T13:56:44;17.83;;;12.52;;
52730;SDS011;38624;53.242;6.974;2022-10-31T13:59:16;20.02;;;12.90;;
52730;SDS011;38624;53.242;6.974;2022-10-31T14:01:46;20.02;;;11.48;;
52730;SDS011;38624;53.242;6.974;2022-10-31T14:04:15;19.38;;;11.45;;
52730;SDS011;38624;53.242;6.974;2022-10-31T14:09:35;13.85;;;8.68;;
52730;SDS011;38624;53.242;6.974;2022-10-31T14:12:05;16.65;;;10.60;;
52730;SDS011;38624;53.242;6.974;2022-10-31T14:14:50;14.98;;;8.45;;
52730;SDS011;38624;53.242;6.974;2022-10-31T14:17:24;15.65;;;7.85;;
52730;SDS011;38624;53.242;6.974;2022-10-31T14:20:03;11.70;;;6.75;;
52730;SDS011;38624;53.242;6.974;2022-10-31T14:23:30;10.77;;;5.28;;
52730;SDS011;38624;53.242;6.974;2022-10-31T14:26:20;13.48;;;6.03;;
52730;SDS011;38624;53.242;6.974;2022-10-31T14:29:03;14.35;;;6.22;;
52730;SDS011;38624;53.242;6.974;2022-10-31T14:31:39;12.05;;;5.55;;
52730;SDS011;38624;53.242;6.974;2022-10-31T14:52:41;14.98;;;9.02;;
52730;SDS011;38624;53.242;6.974;2022-10-31T14:55:15;18.25;;;10.43;;
52730;SDS011;38624;53.242;6.974;2022-10-31T14:57:51;14.73;;;10.45;;
52730;SDS011;38624;53.242;6.974;2022-10-31T15:00:20;15.35;;;9.55;;
52730;SDS011;38624;53.242;6.974;2022-10-31T15:05:33;19.52;;;10.23;;
52730;SDS011;38624;53.242;6.974;2022-10-31T15:08:00;17.25;;;10.70;;
52730;SDS011;38624;53.242;6.974;2022-10-31T15:10:27;16.63;;;10.73;;
52730;SDS011;38624;53.242;6.974;2022-10-31T15:12:55;17.98;;;10.15;;
52730;SDS011;38624;53.242;6.974;2022-10-31T15:15:25;16.40;;;10.10;;
52730;SDS011;38624;53.242;6.974;2022-10-31T15:17:55;15.73;;;10.35;;
52730;SDS011;38624;53.242;6.974;2022-10-31T15:20:26;16.20;;;9.80;;
52730;SDS011;38624;53.242;6.974;2022-10-31T15:22:57;17.85;;;9.55;;
52730;SDS011;38624;53.242;6.974;2022-10-31T15:25:24;14.82;;;9.23;;
52730;SDS011;38624;53.242;6.974;2022-10-31T15:27:53;15.45;;;8.32;;
52730;SDS011;38624;53.242;6.974;2022-10-31T15:32:48;12.93;;;8.05;;
52730;SDS011;38624;53.242;6.974;2022-10-31T15:35:22;11.90;;;7.13;;
52730;SDS011;38624;53.242;6.974;2022-10-31T15:37:52;13.32;;;7.80;;
52730;SDS011;38624;53.242;6.974;2022-10-31T15:40:19;14.67;;;8.23;;
52730;SDS011;38624;53.242;6.974;2022-10-31T15:42:50;12.77;;;7.85;;
52730;SDS011;38624;53.242;6.974;2022-10-31T15:45:22;18.60;;;8.70;;
52730;SDS011;38624;53.242;6.974;2022-10-31T15:50:39;12.38;;;7.43;;
52730;SDS011;38624;53.242;6.974;2022-10-31T15:53:06;14.10;;;7.72;;
52730;SDS011;38624;53.242;6.974;2022-10-31T15:55:57;13.05;;;7.43;;
52730;SDS011;38624;53.242;6.974;2022-10-31T15:58:25;12.63;;;7.30;;
52730;SDS011;38624;53.242;6.974;2022-10-31T16:03:26;12.43;;;6.55;;
52730;SDS011;38624;53.242;6.974;2022-10-31T16:05:55;12.57;;;6.50;;
52730;SDS011;38624;53.242;6.974;2022-10-31T16:10:53;12.20;;;6.72;;
52730;SDS011;38624;53.242;6.974;2022-10-31T16:13:29;13.90;;;7.15;;
52730;SDS011;38624;53.242;6.974;2022-10-31T16:15:57;12.10;;;6.88;;
52730;SDS011;38624;53.242;6.974;2022-10-31T16:18:30;13.07;;;7.00;;
52730;SDS011;38624;53.242;6.974;2022-10-31T16:21:01;11.65;;;7.35;;
52730;SDS011;38624;53.242;6.974;2022-10-31T16:23:27;13.27;;;7.27;;
52730;SDS011;38624;53.242;6.974;2022-10-31T16:25:53;11.87;;;6.80;;
52730;SDS011;38624;53.242;6.974;2022-10-31T16:28:20;13.75;;;8.48;;
52730;SDS011;38624;53.242;6.974;2022-10-31T16:30:49;12.77;;;7.70;;
52730;SDS011;38624;53.242;6.974;2022-10-31T16:33:32;12.70;;;8.80;;
52730;SDS011;38624;53.242;6.974;2022-10-31T16:39:05;13.55;;;8.98;;
52730;SDS011;38624;53.242;6.974;2022-10-31T16:41:32;16.17;;;9.43;;
52730;SDS011;38624;53.242;6.974;2022-10-31T16:44:11;12.35;;;9.18;;
52730;SDS011;38624;53.242;6.974;2022-10-31T16:46:44;15.52;;;9.98;;
52730;SDS011;38624;53.242;6.974;2022-10-31T16:49:10;20.15;;;10.55;;
52730;SDS011;38624;53.242;6.974;2022-10-31T16:51:36;18.53;;;10.70;;
52730;SDS011;38624;53.242;6.974;2022-10-31T16:54:02;17.77;;;10.13;;
52730;SDS011;38624;53.242;6.974;2022-10-31T16:56:28;16.33;;;10.83;;
52730;SDS011;38624;53.242;6.974;2022-10-31T16:58:56;16.95;;;10.95;;
52730;SDS011;38624;53.242;6.974;2022-10-31T17:01:31;19.92;;;11.63;;
52730;SDS011;38624;53.242;6.974;2022-10-31T17:03:57;20.55;;;13.15;;
52730;SDS011;38624;53.242;6.974;2022-10-31T17:06:23;19.30;;;12.77;;
52730;SDS011;38624;53.242;6.974;2022-10-31T17:08:52;19.48;;;12.57;;
52730;SDS011;38624;53.242;6.974;2022-10-31T17:11:19;21.27;;;12.35;;
52730;SDS011;38624;53.242;6.974;2022-10-31T17:13:47;20.20;;;12.93;;
52730;SDS011;38624;53.242;6.974;2022-10-31T17:16:13;22.45;;;14.23;;
52730;SDS011;38624;53.242;6.974;2022-10-31T17:18:41;20.08;;;14.05;;
52730;SDS011;38624;53.242;6.974;2022-10-31T17:21:21;25.35;;;15.60;;
52730;SDS011;38624;53.242;6.974;2022-10-31T17:23:48;22.30;;;15.50;;
52730;SDS011;38624;53.242;6.974;2022-10-31T17:26:15;25.10;;;14.95;;
52730;SDS011;38624;53.242;6.974;2022-10-31T17:28:40;25.60;;;16.60;;